sensor_id;sensor_type;location;lat;lon;timestamp;P1;durP1;ratioP1;P2;durP2;ratioP2
80705;SDS011;70229;48.010;7.852;2023-06-22T00:00:52;8.88;;;5.75;;
80705;SDS011;70229;48.010;7.852;2023-06-22T00:03:19;11.63;;;6.70;;
80705;SDS011;70229;48.010;7.852;2023-06-22T00:05:46;12.02;;;6.90;;
80705;SDS011;70229;48.010;7.852;2023-06-22T00:08:12;8.65;;;5.72;;
80705;SDS011;70229;48.010;7.852;2023-06-22T00:10:38;7.90;;;5.80;;
80705;SDS011;70229;48.010;7.852;2023-06-22T00:13:05;9.20;;;6.20;;
80705;SDS011;70229;48.010;7.852;2023-06-22T00:15:31;11.93;;;6.45;;
80705;SDS011;70229;48.010;7.852;2023-06-22T00:17:57;15.20;;;6.10;;
80705;SDS011;70229;48.010;7.852;2023-06-22T00:20:23;9.88;;;6.10;;
80705;SDS011;70229;48.010;7.852;2023-06-22T00:22:56;8.90;;;6.75;;
80705;SDS011;70229;48.010;7.852;2023-06-22T00:25:23;11.88;;;7.82;;
80705;SDS011;70229;48.010;7.852;2023-06-22T00:27:49;7.97;;;5.78;;
80705;SDS011;70229;48.010;7.852;2023-06-22T00:30:18;9.10;;;6.63;;
80705;SDS011;70229;48.010;7.852;2023-06-22T00:32:44;9.13;;;5.60;;
80705;SDS011;70229;48.010;7.852;2023-06-22T00:35:11;9.45;;;6.45;;
80705;SDS011;70229;48.010;7.852;2023-06-22T00:37:37;9.50;;;6.35;;
80705;SDS011;70229;48.010;7.852;2023-06-22T00:40:05;12.88;;;7.55;;
80705;SDS011;70229;48.010;7.852;2023-06-22T00:42:32;7.88;;;5.50;;
80705;SDS011;70229;48.010;7.852;2023-06-22T00:44:57;7.50;;;6.03;;
80705;SDS011;70229;48.010;7.852;2023-06-22T00:47:23;8.57;;;5.93;;
80705;SDS011;70229;48.010;7.852;2023-06-22T00:49:49;11.23;;;6.32;;
80705;SDS011;70229;48.010;7.852;2023-06-22T00:52:19;9.77;;;5.75;;
80705;SDS011;70229;48.010;7.852;2023-06-22T00:54:47;9.10;;;6.20;;
80705;SDS011;70229;48.010;7.852;2023-06-22T00:57:13;8.13;;;6.50;;
80705;SDS011;70229;48.010;7.852;2023-06-22T00:59:46;14.07;;;6.97;;
80705;SDS011;70229;48.010;7.852;2023-06-22T01:02:13;7.47;;;5.82;;
80705;SDS011;70229;48.010;7.852;2023-06-22T01:04:39;9.35;;;6.15;;
80705;SDS011;70229;48.010;7.852;2023-06-22T01:07:13;9.73;;;6.63;;
80705;SDS011;70229;48.010;7.852;2023-06-22T01:12:45;10.80;;;6.93;;
80705;SDS011;70229;48.010;7.852;2023-06-22T01:15:18;9.15;;;5.45;;
80705;SDS011;70229;48.010;7.852;2023-06-22T01:17:55;15.90;;;6.88;;
80705;SDS011;70229;48.010;7.852;2023-06-22T01:20:23;10.07;;;5.80;;
80705;SDS011;70229;48.010;7.852;2023-06-22T01:25:29;13.65;;;6.45;;
80705;SDS011;70229;48.010;7.852;2023-06-22T01:30:33;10.85;;;6.20;;
80705;SDS011;70229;48.010;7.852;2023-06-22T01:33:04;10.45;;;6.93;;
80705;SDS011;70229;48.010;7.852;2023-06-22T01:35:30;12.57;;;6.28;;
80705;SDS011;70229;48.010;7.852;2023-06-22T01:37:57;8.77;;;5.75;;
80705;SDS011;70229;48.010;7.852;2023-06-22T01:40:22;11.75;;;6.07;;
80705;SDS011;70229;48.010;7.852;2023-06-22T01:42:49;9.10;;;5.35;;
80705;SDS011;70229;48.010;7.852;2023-06-22T01:45:16;11.55;;;5.88;;
80705;SDS011;70229;48.010;7.852;2023-06-22T01:47:42;10.15;;;6.25;;
80705;SDS011;70229;48.010;7.852;2023-06-22T01:50:08;9.88;;;6.57;;
80705;SDS011;70229;48.010;7.852;2023-06-22T01:52:34;9.38;;;6.00;;
80705;SDS011;70229;48.010;7.852;2023-06-22T01:55:00;9.15;;;5.97;;
80705;SDS011;70229;48.010;7.852;2023-06-22T01:57:26;10.13;;;5.78;;
80705;SDS011;70229;48.010;7.852;2023-06-22T02:04:57;9.38;;;5.80;;
80705;SDS011;70229;48.010;7.852;2023-06-22T02:07:31;10.57;;;5.82;;
80705;SDS011;70229;48.010;7.852;2023-06-22T02:10:01;9.82;;;4.80;;
80705;SDS011;70229;48.010;7.852;2023-06-22T02:12:28;7.38;;;6.15;;
80705;SDS011;70229;48.010;7.852;2023-06-22T02:14:56;12.32;;;7.20;;
80705;SDS011;70229;48.010;7.852;2023-06-22T02:17:22;10.45;;;6.88;;
80705;SDS011;70229;48.010;7.852;2023-06-22T02:19:49;11.93;;;6.82;;
80705;SDS011;70229;48.010;7.852;2023-06-22T02:22:14;12.98;;;6.65;;
80705;SDS011;70229;48.010;7.852;2023-06-22T02:24:40;16.80;;;7.32;;
80705;SDS011;70229;48.010;7.852;2023-06-22T02:27:06;11.23;;;7.95;;
80705;SDS011;70229;48.010;7.852;2023-06-22T02:29:32;9.73;;;6.90;;
80705;SDS011;70229;48.010;7.852;2023-06-22T02:31:57;13.57;;;7.82;;
80705;SDS011;70229;48.010;7.852;2023-06-22T02:34:23;11.30;;;6.55;;
80705;SDS011;70229;48.010;7.852;2023-06-22T02:36:49;13.82;;;7.10;;
80705;SDS011;70229;48.010;7.852;2023-06-22T02:39:21;11.27;;;6.47;;
80705;SDS011;70229;48.010;7.852;2023-06-22T02:41:48;9.90;;;7.38;;
80705;SDS011;70229;48.010;7.852;2023-06-22T02:44:15;11.55;;;7.35;;
80705;SDS011;70229;48.010;7.852;2023-06-22T02:46:40;9.20;;;5.95;;
80705;SDS011;70229;48.010;7.852;2023-06-22T02:49:06;19.67;;;7.22;;
80705;SDS011;70229;48.010;7.852;2023-06-22T02:51:35;9.30;;;7.22;;
80705;SDS011;70229;48.010;7.852;2023-06-22T02:54:04;9.23;;;6.78;;
80705;SDS011;70229;48.010;7.852;2023-06-22T02:56:30;10.98;;;7.35;;
80705;SDS011;70229;48.010;7.852;2023-06-22T02:58:56;9.43;;;7.20;;
80705;SDS011;70229;48.010;7.852;2023-06-22T03:01:25;13.27;;;8.10;;
80705;SDS011;70229;48.010;7.852;2023-06-22T03:03:55;10.70;;;7.10;;
80705;SDS011;70229;48.010;7.852;2023-06-22T03:06:21;15.05;;;7.85;;
80705;SDS011;70229;48.010;7.852;2023-06-22T03:08:48;14.15;;;7.10;;
80705;SDS011;70229;48.010;7.852;2023-06-22T03:11:16;8.60;;;6.63;;
80705;SDS011;70229;48.010;7.852;2023-06-22T03:13:42;9.30;;;6.82;;
80705;SDS011;70229;48.010;7.852;2023-06-22T03:16:08;13.07;;;8.05;;
80705;SDS011;70229;48.010;7.852;2023-06-22T03:18:34;9.98;;;7.45;;
80705;SDS011;70229;48.010;7.852;2023-06-22T03:20:59;9.00;;;6.75;;
80705;SDS011;70229;48.010;7.852;2023-06-22T03:23:27;9.73;;;6.82;;
80705;SDS011;70229;48.010;7.852;2023-06-22T03:25:52;11.15;;;7.30;;
80705;SDS011;70229;48.010;7.852;2023-06-22T03:28:20;8.70;;;5.93;;
80705;SDS011;70229;48.010;7.852;2023-06-22T03:30:46;9.70;;;7.00;;
80705;SDS011;70229;48.010;7.852;2023-06-22T03:33:12;8.88;;;5.93;;
80705;SDS011;70229;48.010;7.852;2023-06-22T03:35:38;11.50;;;6.47;;
80705;SDS011;70229;48.010;7.852;2023-06-22T03:38:03;8.63;;;6.32;;
80705;SDS011;70229;48.010;7.852;2023-06-22T03:40:29;8.68;;;6.28;;
80705;SDS011;70229;48.010;7.852;2023-06-22T03:42:55;11.38;;;7.25;;
80705;SDS011;70229;48.010;7.852;2023-06-22T03:45:20;10.13;;;7.07;;
80705;SDS011;70229;48.010;7.852;2023-06-22T03:47:46;13.20;;;6.75;;
80705;SDS011;70229;48.010;7.852;2023-06-22T03:50:11;10.15;;;6.40;;
80705;SDS011;70229;48.010;7.852;2023-06-22T03:52:38;17.63;;;7.75;;
80705;SDS011;70229;48.010;7.852;2023-06-22T03:55:05;10.05;;;6.47;;
80705;SDS011;70229;48.010;7.852;2023-06-22T03:57:31;11.18;;;6.50;;
80705;SDS011;70229;48.010;7.852;2023-06-22T03:59:57;12.88;;;7.50;;
80705;SDS011;70229;48.010;7.852;2023-06-22T04:02:23;12.57;;;6.03;;
80705;SDS011;70229;48.010;7.852;2023-06-22T04:04:49;12.43;;;7.15;;
80705;SDS011;70229;48.010;7.852;2023-06-22T04:07:14;13.55;;;7.03;;
80705;SDS011;70229;48.010;7.852;2023-06-22T04:09:40;11.88;;;6.00;;
80705;SDS011;70229;48.010;7.852;2023-06-22T04:12:05;14.18;;;5.93;;
80705;SDS011;70229;48.010;7.852;2023-06-22T04:14:31;9.68;;;7.03;;
80705;SDS011;70229;48.010;7.852;2023-06-22T04:16:57;16.30;;;6.55;;
80705;SDS011;70229;48.010;7.852;2023-06-22T04:19:23;8.60;;;6.25;;
80705;SDS011;70229;48.010;7.852;2023-06-22T04:21:49;12.98;;;6.70;;
80705;SDS011;70229;48.010;7.852;2023-06-22T04:24:14;14.68;;;6.80;;
80705;SDS011;70229;48.010;7.852;2023-06-22T04:26:40;11.55;;;6.65;;
80705;SDS011;70229;48.010;7.852;2023-06-22T04:29:07;11.52;;;6.43;;
80705;SDS011;70229;48.010;7.852;2023-06-22T04:31:35;11.07;;;5.60;;
80705;SDS011;70229;48.010;7.852;2023-06-22T04:34:02;16.15;;;7.50;;
80705;SDS011;70229;48.010;7.852;2023-06-22T04:36:33;7.75;;;5.20;;
80705;SDS011;70229;48.010;7.852;2023-06-22T04:39:02;14.43;;;6.20;;
80705;SDS011;70229;48.010;7.852;2023-06-22T04:41:35;10.40;;;7.22;;
80705;SDS011;70229;48.010;7.852;2023-06-22T04:44:08;14.63;;;7.60;;
80705;SDS011;70229;48.010;7.852;2023-06-22T04:46:37;7.68;;;5.55;;
80705;SDS011;70229;48.010;7.852;2023-06-22T04:49:05;10.90;;;5.75;;
80705;SDS011;70229;48.010;7.852;2023-06-22T04:51:41;9.98;;;6.28;;
80705;SDS011;70229;48.010;7.852;2023-06-22T04:54:08;12.02;;;6.20;;
80705;SDS011;70229;48.010;7.852;2023-06-22T04:56:34;10.38;;;5.43;;
80705;SDS011;70229;48.010;7.852;2023-06-22T04:59:00;7.00;;;4.97;;
80705;SDS011;70229;48.010;7.852;2023-06-22T05:01:26;7.78;;;5.32;;
80705;SDS011;70229;48.010;7.852;2023-06-22T05:03:51;11.63;;;5.57;;
80705;SDS011;70229;48.010;7.852;2023-06-22T05:06:22;11.43;;;6.07;;
80705;SDS011;70229;48.010;7.852;2023-06-22T05:08:50;16.38;;;7.20;;
80705;SDS011;70229;48.010;7.852;2023-06-22T05:11:22;8.35;;;5.60;;
80705;SDS011;70229;48.010;7.852;2023-06-22T05:13:48;10.05;;;6.18;;
80705;SDS011;70229;48.010;7.852;2023-06-22T05:16:14;11.48;;;6.78;;
80705;SDS011;70229;48.010;7.852;2023-06-22T05:18:39;14.10;;;6.43;;
80705;SDS011;70229;48.010;7.852;2023-06-22T05:21:06;9.52;;;6.07;;
80705;SDS011;70229;48.010;7.852;2023-06-22T05:23:32;8.65;;;5.72;;
80705;SDS011;70229;48.010;7.852;2023-06-22T05:25:57;12.43;;;6.20;;
80705;SDS011;70229;48.010;7.852;2023-06-22T05:28:23;9.65;;;5.93;;
80705;SDS011;70229;48.010;7.852;2023-06-22T05:30:49;14.57;;;6.70;;
80705;SDS011;70229;48.010;7.852;2023-06-22T05:33:14;9.45;;;5.85;;
80705;SDS011;70229;48.010;7.852;2023-06-22T05:35:40;9.73;;;6.03;;
80705;SDS011;70229;48.010;7.852;2023-06-22T05:38:06;9.07;;;5.78;;
80705;SDS011;70229;48.010;7.852;2023-06-22T05:40:32;9.85;;;6.13;;
80705;SDS011;70229;48.010;7.852;2023-06-22T05:42:57;9.00;;;6.47;;
80705;SDS011;70229;48.010;7.852;2023-06-22T05:45:24;12.60;;;6.65;;
80705;SDS011;70229;48.010;7.852;2023-06-22T05:47:50;8.57;;;6.50;;
80705;SDS011;70229;48.010;7.852;2023-06-22T05:50:15;10.05;;;5.50;;
80705;SDS011;70229;48.010;7.852;2023-06-22T05:52:41;12.27;;;6.40;;
80705;SDS011;70229;48.010;7.852;2023-06-22T05:55:07;9.23;;;5.72;;
80705;SDS011;70229;48.010;7.852;2023-06-22T05:57:33;12.68;;;6.70;;
80705;SDS011;70229;48.010;7.852;2023-06-22T05:59:58;12.68;;;8.23;;
80705;SDS011;70229;48.010;7.852;2023-06-22T06:02:24;9.50;;;5.93;;
80705;SDS011;70229;48.010;7.852;2023-06-22T06:04:50;11.25;;;5.78;;
80705;SDS011;70229;48.010;7.852;2023-06-22T06:07:17;9.50;;;6.43;;
80705;SDS011;70229;48.010;7.852;2023-06-22T06:09:43;10.50;;;6.78;;
80705;SDS011;70229;48.010;7.852;2023-06-22T06:12:08;11.05;;;6.03;;
80705;SDS011;70229;48.010;7.852;2023-06-22T06:14:34;19.52;;;6.53;;
80705;SDS011;70229;48.010;7.852;2023-06-22T06:17:00;9.90;;;6.57;;
80705;SDS011;70229;48.010;7.852;2023-06-22T06:19:25;13.75;;;7.60;;
80705;SDS011;70229;48.010;7.852;2023-06-22T06:21:51;10.82;;;6.90;;
80705;SDS011;70229;48.010;7.852;2023-06-22T06:24:16;19.27;;;9.73;;
80705;SDS011;70229;48.010;7.852;2023-06-22T06:26:42;10.50;;;7.72;;
80705;SDS011;70229;48.010;7.852;2023-06-22T06:29:07;11.80;;;7.97;;
80705;SDS011;70229;48.010;7.852;2023-06-22T06:31:33;15.35;;;9.88;;
80705;SDS011;70229;48.010;7.852;2023-06-22T06:33:59;11.65;;;8.20;;
80705;SDS011;70229;48.010;7.852;2023-06-22T06:36:24;15.18;;;8.70;;
80705;SDS011;70229;48.010;7.852;2023-06-22T06:38:50;16.00;;;8.43;;
80705;SDS011;70229;48.010;7.852;2023-06-22T06:41:15;14.50;;;9.68;;
80705;SDS011;70229;48.010;7.852;2023-06-22T06:43:41;13.32;;;8.80;;
80705;SDS011;70229;48.010;7.852;2023-06-22T06:46:10;14.15;;;10.18;;
80705;SDS011;70229;48.010;7.852;2023-06-22T06:48:35;11.27;;;9.80;;
80705;SDS011;70229;48.010;7.852;2023-06-22T06:51:01;18.30;;;9.75;;
80705;SDS011;70229;48.010;7.852;2023-06-22T06:53:27;15.57;;;9.63;;
80705;SDS011;70229;48.010;7.852;2023-06-22T06:55:53;13.85;;;9.95;;
80705;SDS011;70229;48.010;7.852;2023-06-22T06:58:19;12.73;;;9.50;;
80705;SDS011;70229;48.010;7.852;2023-06-22T07:00:45;11.35;;;9.23;;
80705;SDS011;70229;48.010;7.852;2023-06-22T07:03:10;12.80;;;9.50;;
80705;SDS011;70229;48.010;7.852;2023-06-22T07:05:36;10.60;;;8.48;;
80705;SDS011;70229;48.010;7.852;2023-06-22T07:08:02;13.15;;;9.35;;
80705;SDS011;70229;48.010;7.852;2023-06-22T07:10:28;11.60;;;7.65;;
80705;SDS011;70229;48.010;7.852;2023-06-22T07:12:54;10.80;;;7.68;;
80705;SDS011;70229;48.010;7.852;2023-06-22T07:15:19;12.88;;;7.50;;
80705;SDS011;70229;48.010;7.852;2023-06-22T07:17:45;17.10;;;8.30;;
80705;SDS011;70229;48.010;7.852;2023-06-22T07:20:10;15.85;;;7.95;;
80705;SDS011;70229;48.010;7.852;2023-06-22T07:22:41;10.30;;;7.07;;
80705;SDS011;70229;48.010;7.852;2023-06-22T07:25:07;11.05;;;7.10;;
80705;SDS011;70229;48.010;7.852;2023-06-22T07:27:40;9.35;;;6.55;;
80705;SDS011;70229;48.010;7.852;2023-06-22T07:30:22;12.27;;;7.55;;
80705;SDS011;70229;48.010;7.852;2023-06-22T07:32:48;9.80;;;6.75;;
80705;SDS011;70229;48.010;7.852;2023-06-22T07:35:13;14.30;;;6.00;;
80705;SDS011;70229;48.010;7.852;2023-06-22T07:37:41;15.13;;;7.25;;
80705;SDS011;70229;48.010;7.852;2023-06-22T07:40:07;18.88;;;6.90;;
80705;SDS011;70229;48.010;7.852;2023-06-22T07:42:33;14.93;;;8.32;;
80705;SDS011;70229;48.010;7.852;2023-06-22T07:44:59;15.27;;;7.20;;
80705;SDS011;70229;48.010;7.852;2023-06-22T07:47:25;10.45;;;7.70;;
80705;SDS011;70229;48.010;7.852;2023-06-22T07:49:53;11.40;;;7.07;;
80705;SDS011;70229;48.010;7.852;2023-06-22T07:52:20;15.38;;;6.93;;
80705;SDS011;70229;48.010;7.852;2023-06-22T07:54:46;11.60;;;7.78;;
80705;SDS011;70229;48.010;7.852;2023-06-22T07:57:12;15.20;;;7.90;;
80705;SDS011;70229;48.010;7.852;2023-06-22T07:59:37;11.63;;;8.27;;
80705;SDS011;70229;48.010;7.852;2023-06-22T08:02:03;10.80;;;6.95;;
80705;SDS011;70229;48.010;7.852;2023-06-22T08:04:30;17.25;;;7.82;;
80705;SDS011;70229;48.010;7.852;2023-06-22T08:06:59;15.60;;;6.95;;
80705;SDS011;70229;48.010;7.852;2023-06-22T08:09:25;14.38;;;7.90;;
80705;SDS011;70229;48.010;7.852;2023-06-22T08:11:52;12.50;;;8.15;;
80705;SDS011;70229;48.010;7.852;2023-06-22T08:14:19;12.77;;;7.80;;
80705;SDS011;70229;48.010;7.852;2023-06-22T08:16:44;11.60;;;6.55;;
80705;SDS011;70229;48.010;7.852;2023-06-22T08:19:10;10.52;;;6.22;;
80705;SDS011;70229;48.010;7.852;2023-06-22T08:21:36;14.90;;;7.90;;
80705;SDS011;70229;48.010;7.852;2023-06-22T08:24:02;9.95;;;6.93;;
80705;SDS011;70229;48.010;7.852;2023-06-22T08:26:28;10.88;;;7.13;;
80705;SDS011;70229;48.010;7.852;2023-06-22T08:28:54;9.05;;;6.70;;
80705;SDS011;70229;48.010;7.852;2023-06-22T08:31:19;10.32;;;7.13;;
80705;SDS011;70229;48.010;7.852;2023-06-22T08:33:45;10.95;;;6.43;;
80705;SDS011;70229;48.010;7.852;2023-06-22T08:36:11;9.80;;;6.35;;
80705;SDS011;70229;48.010;7.852;2023-06-22T08:38:38;8.35;;;6.50;;
80705;SDS011;70229;48.010;7.852;2023-06-22T08:41:04;10.30;;;6.15;;
80705;SDS011;70229;48.010;7.852;2023-06-22T08:43:30;9.10;;;6.72;;
80705;SDS011;70229;48.010;7.852;2023-06-22T08:45:55;8.90;;;6.47;;
80705;SDS011;70229;48.010;7.852;2023-06-22T08:48:21;16.75;;;6.03;;
80705;SDS011;70229;48.010;7.852;2023-06-22T08:50:46;11.10;;;5.97;;
80705;SDS011;70229;48.010;7.852;2023-06-22T08:53:12;13.10;;;7.60;;
80705;SDS011;70229;48.010;7.852;2023-06-22T08:55:37;9.00;;;6.13;;
80705;SDS011;70229;48.010;7.852;2023-06-22T08:58:03;10.13;;;5.80;;
80705;SDS011;70229;48.010;7.852;2023-06-22T09:00:29;7.78;;;5.22;;
80705;SDS011;70229;48.010;7.852;2023-06-22T09:02:57;10.95;;;6.65;;
80705;SDS011;70229;48.010;7.852;2023-06-22T09:05:23;8.52;;;5.35;;
80705;SDS011;70229;48.010;7.852;2023-06-22T09:07:51;9.65;;;6.22;;
80705;SDS011;70229;48.010;7.852;2023-06-22T09:10:16;15.35;;;7.22;;
80705;SDS011;70229;48.010;7.852;2023-06-22T09:12:43;14.43;;;6.63;;
80705;SDS011;70229;48.010;7.852;2023-06-22T09:15:09;13.50;;;7.00;;
80705;SDS011;70229;48.010;7.852;2023-06-22T09:17:35;12.82;;;7.03;;
80705;SDS011;70229;48.010;7.852;2023-06-22T09:20:01;10.02;;;6.45;;
80705;SDS011;70229;48.010;7.852;2023-06-22T09:22:30;13.43;;;7.40;;
80705;SDS011;70229;48.010;7.852;2023-06-22T09:24:56;9.57;;;6.72;;
80705;SDS011;70229;48.010;7.852;2023-06-22T09:27:22;10.50;;;5.88;;
80705;SDS011;70229;48.010;7.852;2023-06-22T09:29:48;17.23;;;6.18;;
80705;SDS011;70229;48.010;7.852;2023-06-22T09:32:14;11.68;;;6.30;;
80705;SDS011;70229;48.010;7.852;2023-06-22T09:34:40;12.82;;;6.03;;
80705;SDS011;70229;48.010;7.852;2023-06-22T09:37:05;15.35;;;6.15;;
80705;SDS011;70229;48.010;7.852;2023-06-22T09:39:31;12.45;;;6.32;;
80705;SDS011;70229;48.010;7.852;2023-06-22T09:42:00;12.38;;;6.32;;
80705;SDS011;70229;48.010;7.852;2023-06-22T09:44:25;10.98;;;6.45;;
80705;SDS011;70229;48.010;7.852;2023-06-22T09:46:53;12.38;;;6.60;;
80705;SDS011;70229;48.010;7.852;2023-06-22T09:49:18;15.32;;;5.97;;
80705;SDS011;70229;48.010;7.852;2023-06-22T09:51:44;9.57;;;6.72;;
80705;SDS011;70229;48.010;7.852;2023-06-22T09:54:09;11.05;;;6.00;;
80705;SDS011;70229;48.010;7.852;2023-06-22T09:56:35;10.45;;;6.38;;
80705;SDS011;70229;48.010;7.852;2023-06-22T09:59:02;11.45;;;6.55;;
80705;SDS011;70229;48.010;7.852;2023-06-22T10:01:29;11.48;;;5.57;;
80705;SDS011;70229;48.010;7.852;2023-06-22T10:03:55;14.10;;;6.63;;
80705;SDS011;70229;48.010;7.852;2023-06-22T10:06:21;13.85;;;7.28;;
80705;SDS011;70229;48.010;7.852;2023-06-22T10:08:52;12.38;;;6.57;;
80705;SDS011;70229;48.010;7.852;2023-06-22T10:11:18;11.13;;;7.05;;
80705;SDS011;70229;48.010;7.852;2023-06-22T10:13:45;11.43;;;6.40;;
80705;SDS011;70229;48.010;7.852;2023-06-22T10:16:10;10.57;;;6.10;;
80705;SDS011;70229;48.010;7.852;2023-06-22T10:18:36;11.98;;;5.95;;
80705;SDS011;70229;48.010;7.852;2023-06-22T10:21:01;13.30;;;6.75;;
80705;SDS011;70229;48.010;7.852;2023-06-22T10:23:27;13.63;;;6.80;;
80705;SDS011;70229;48.010;7.852;2023-06-22T10:25:53;11.98;;;6.63;;
80705;SDS011;70229;48.010;7.852;2023-06-22T10:28:18;14.05;;;5.57;;
80705;SDS011;70229;48.010;7.852;2023-06-22T10:30:44;10.40;;;6.30;;
80705;SDS011;70229;48.010;7.852;2023-06-22T10:33:10;16.58;;;6.70;;
80705;SDS011;70229;48.010;7.852;2023-06-22T10:35:36;12.45;;;6.30;;
80705;SDS011;70229;48.010;7.852;2023-06-22T10:38:02;10.20;;;6.18;;
80705;SDS011;70229;48.010;7.852;2023-06-22T10:40:29;8.30;;;6.20;;
80705;SDS011;70229;48.010;7.852;2023-06-22T10:42:55;12.60;;;7.30;;
80705;SDS011;70229;48.010;7.852;2023-06-22T10:45:20;12.65;;;6.63;;
80705;SDS011;70229;48.010;7.852;2023-06-22T10:47:46;11.07;;;7.18;;
80705;SDS011;70229;48.010;7.852;2023-06-22T10:50:13;11.57;;;5.88;;
80705;SDS011;70229;48.010;7.852;2023-06-22T10:52:38;16.10;;;7.50;;
80705;SDS011;70229;48.010;7.852;2023-06-22T10:55:06;9.48;;;6.10;;
80705;SDS011;70229;48.010;7.852;2023-06-22T10:57:33;16.95;;;6.68;;
80705;SDS011;70229;48.010;7.852;2023-06-22T10:59:58;11.65;;;5.80;;
80705;SDS011;70229;48.010;7.852;2023-06-22T11:02:24;11.65;;;6.75;;
80705;SDS011;70229;48.010;7.852;2023-06-22T11:04:49;13.90;;;6.30;;
80705;SDS011;70229;48.010;7.852;2023-06-22T11:07:15;16.13;;;6.70;;
80705;SDS011;70229;48.010;7.852;2023-06-22T11:09:42;14.98;;;6.35;;
80705;SDS011;70229;48.010;7.852;2023-06-22T11:12:08;8.82;;;6.18;;
80705;SDS011;70229;48.010;7.852;2023-06-22T11:14:34;12.73;;;6.22;;
80705;SDS011;70229;48.010;7.852;2023-06-22T11:16:59;12.48;;;6.30;;
80705;SDS011;70229;48.010;7.852;2023-06-22T11:19:25;11.90;;;6.07;;
80705;SDS011;70229;48.010;7.852;2023-06-22T11:21:51;11.95;;;6.32;;
80705;SDS011;70229;48.010;7.852;2023-06-22T11:24:16;10.52;;;6.05;;
80705;SDS011;70229;48.010;7.852;2023-06-22T11:26:42;14.18;;;6.32;;
80705;SDS011;70229;48.010;7.852;2023-06-22T11:29:08;11.90;;;6.35;;
80705;SDS011;70229;48.010;7.852;2023-06-22T11:31:34;9.13;;;6.95;;
80705;SDS011;70229;48.010;7.852;2023-06-22T11:34:00;8.80;;;6.88;;
80705;SDS011;70229;48.010;7.852;2023-06-22T11:36:26;14.55;;;6.50;;
80705;SDS011;70229;48.010;7.852;2023-06-22T11:38:52;10.27;;;6.63;;
80705;SDS011;70229;48.010;7.852;2023-06-22T11:41:17;13.77;;;7.20;;
80705;SDS011;70229;48.010;7.852;2023-06-22T11:43:43;10.48;;;7.80;;
80705;SDS011;70229;48.010;7.852;2023-06-22T11:46:09;11.85;;;5.95;;
80705;SDS011;70229;48.010;7.852;2023-06-22T11:48:35;11.63;;;6.80;;
80705;SDS011;70229;48.010;7.852;2023-06-22T11:51:01;15.25;;;7.53;;
80705;SDS011;70229;48.010;7.852;2023-06-22T11:53:28;12.32;;;6.82;;
80705;SDS011;70229;48.010;7.852;2023-06-22T11:55:54;14.88;;;6.43;;
80705;SDS011;70229;48.010;7.852;2023-06-22T11:58:20;12.93;;;7.55;;
80705;SDS011;70229;48.010;7.852;2023-06-22T12:00:45;12.05;;;7.15;;
80705;SDS011;70229;48.010;7.852;2023-06-22T12:03:11;10.70;;;6.47;;
80705;SDS011;70229;48.010;7.852;2023-06-22T12:05:37;8.85;;;5.20;;
80705;SDS011;70229;48.010;7.852;2023-06-22T12:08:03;10.45;;;6.85;;
80705;SDS011;70229;48.010;7.852;2023-06-22T12:10:29;8.25;;;6.30;;
80705;SDS011;70229;48.010;7.852;2023-06-22T12:12:55;13.45;;;7.55;;
80705;SDS011;70229;48.010;7.852;2023-06-22T12:15:22;10.13;;;6.75;;
80705;SDS011;70229;48.010;7.852;2023-06-22T12:17:48;8.95;;;6.05;;
80705;SDS011;70229;48.010;7.852;2023-06-22T12:20:13;15.18;;;6.80;;
80705;SDS011;70229;48.010;7.852;2023-06-22T12:22:40;15.55;;;7.32;;
80705;SDS011;70229;48.010;7.852;2023-06-22T12:25:06;11.73;;;6.10;;
80705;SDS011;70229;48.010;7.852;2023-06-22T12:27:32;16.15;;;6.85;;
80705;SDS011;70229;48.010;7.852;2023-06-22T12:29:59;13.15;;;8.13;;
80705;SDS011;70229;48.010;7.852;2023-06-22T12:32:24;10.23;;;7.20;;
80705;SDS011;70229;48.010;7.852;2023-06-22T12:34:51;15.23;;;7.47;;
80705;SDS011;70229;48.010;7.852;2023-06-22T12:37:16;13.02;;;7.68;;
80705;SDS011;70229;48.010;7.852;2023-06-22T12:39:42;12.70;;;7.13;;
80705;SDS011;70229;48.010;7.852;2023-06-22T12:42:08;12.15;;;6.95;;
80705;SDS011;70229;48.010;7.852;2023-06-22T12:44:34;11.27;;;7.57;;
80705;SDS011;70229;48.010;7.852;2023-06-22T12:47:00;18.83;;;8.63;;
80705;SDS011;70229;48.010;7.852;2023-06-22T12:49:26;13.80;;;6.72;;
80705;SDS011;70229;48.010;7.852;2023-06-22T12:51:52;12.85;;;7.25;;
80705;SDS011;70229;48.010;7.852;2023-06-22T12:54:17;15.75;;;6.78;;
80705;SDS011;70229;48.010;7.852;2023-06-22T12:56:43;16.48;;;7.28;;
80705;SDS011;70229;48.010;7.852;2023-06-22T12:59:10;15.20;;;6.15;;
80705;SDS011;70229;48.010;7.852;2023-06-22T13:01:35;9.75;;;5.30;;
80705;SDS011;70229;48.010;7.852;2023-06-22T13:04:02;13.38;;;5.88;;
80705;SDS011;70229;48.010;7.852;2023-06-22T13:06:28;9.18;;;5.13;;
80705;SDS011;70229;48.010;7.852;2023-06-22T13:08:54;11.25;;;5.90;;
80705;SDS011;70229;48.010;7.852;2023-06-22T13:11:19;9.10;;;5.65;;
80705;SDS011;70229;48.010;7.852;2023-06-22T13:13:45;11.30;;;5.72;;
80705;SDS011;70229;48.010;7.852;2023-06-22T13:16:11;16.75;;;6.18;;
80705;SDS011;70229;48.010;7.852;2023-06-22T13:18:37;14.75;;;5.20;;
80705;SDS011;70229;48.010;7.852;2023-06-22T13:21:03;14.43;;;5.75;;
80705;SDS011;70229;48.010;7.852;2023-06-22T13:23:29;9.15;;;5.72;;
80705;SDS011;70229;48.010;7.852;2023-06-22T13:25:55;10.25;;;5.18;;
80705;SDS011;70229;48.010;7.852;2023-06-22T13:28:20;13.75;;;6.15;;
80705;SDS011;70229;48.010;7.852;2023-06-22T13:30:46;11.25;;;5.93;;
80705;SDS011;70229;48.010;7.852;2023-06-22T13:33:15;13.65;;;6.40;;
80705;SDS011;70229;48.010;7.852;2023-06-22T13:35:41;9.43;;;5.45;;
80705;SDS011;70229;48.010;7.852;2023-06-22T13:38:07;21.70;;;6.88;;
80705;SDS011;70229;48.010;7.852;2023-06-22T13:40:34;10.27;;;6.85;;
80705;SDS011;70229;48.010;7.852;2023-06-22T13:43:00;11.73;;;5.55;;
80705;SDS011;70229;48.010;7.852;2023-06-22T13:45:25;14.02;;;6.15;;
80705;SDS011;70229;48.010;7.852;2023-06-22T13:47:51;11.70;;;4.75;;
80705;SDS011;70229;48.010;7.852;2023-06-22T13:50:17;14.48;;;5.50;;
80705;SDS011;70229;48.010;7.852;2023-06-22T13:52:43;14.32;;;6.20;;
80705;SDS011;70229;48.010;7.852;2023-06-22T13:55:08;13.65;;;5.25;;
80705;SDS011;70229;48.010;7.852;2023-06-22T13:57:35;13.02;;;5.82;;
80705;SDS011;70229;48.010;7.852;2023-06-22T14:00:02;17.17;;;5.93;;
80705;SDS011;70229;48.010;7.852;2023-06-22T14:02:30;13.43;;;6.38;;
80705;SDS011;70229;48.010;7.852;2023-06-22T14:04:55;11.30;;;5.25;;
80705;SDS011;70229;48.010;7.852;2023-06-22T14:07:21;10.00;;;6.35;;
80705;SDS011;70229;48.010;7.852;2023-06-22T14:09:47;17.02;;;6.45;;
80705;SDS011;70229;48.010;7.852;2023-06-22T14:12:13;8.27;;;4.80;;
80705;SDS011;70229;48.010;7.852;2023-06-22T14:14:38;11.88;;;5.63;;
80705;SDS011;70229;48.010;7.852;2023-06-22T14:17:04;12.18;;;5.63;;
80705;SDS011;70229;48.010;7.852;2023-06-22T14:19:30;12.38;;;6.35;;
80705;SDS011;70229;48.010;7.852;2023-06-22T14:21:56;10.50;;;5.90;;
80705;SDS011;70229;48.010;7.852;2023-06-22T14:24:22;11.38;;;5.40;;
80705;SDS011;70229;48.010;7.852;2023-06-22T14:26:48;14.77;;;5.40;;
80705;SDS011;70229;48.010;7.852;2023-06-22T14:29:14;8.70;;;5.38;;
80705;SDS011;70229;48.010;7.852;2023-06-22T14:31:39;8.50;;;4.88;;
80705;SDS011;70229;48.010;7.852;2023-06-22T14:34:05;9.50;;;4.65;;
80705;SDS011;70229;48.010;7.852;2023-06-22T14:36:31;11.52;;;5.43;;
80705;SDS011;70229;48.010;7.852;2023-06-22T14:38:56;8.65;;;5.13;;
80705;SDS011;70229;48.010;7.852;2023-06-22T14:41:22;10.13;;;5.68;;
80705;SDS011;70229;48.010;7.852;2023-06-22T14:43:49;9.52;;;5.22;;
80705;SDS011;70229;48.010;7.852;2023-06-22T14:46:15;14.77;;;5.38;;